Time;durP1;ratioP1;P1;durP2;ratioP2;P2;SDS_P1;SDS_P2;PMS_P1;PMS_P2;Temp;Humidity;BMP_temperature;BMP_pressure;BME280_temperature;BME280_humidity;BME280_pressure;Samples;Min_cycle;Max_cycle;Signal;HPM_P1;HPM_P2
2023/07/08 00:02:11;;;;;;;0.00;0.00;;;;;;;19.14;nan;101291.75;4948684;29;20195;-76
2023/07/08 00:04:37;;;;;;;0.00;0.00;;;;;;;19.09;nan;101294.75;4948357;29;20238;-76
2023/07/08 00:07:03;;;;;;;0.00;0.00;;;;;;;18.96;nan;101296.75;4948519;29;20182;-76
2023/07/08 00:09:28;;;;;;;0.00;0.00;;;;;;;18.83;nan;101282.09;4952576;28;20189;-76
2023/07/08 00:11:53;;;;;;;0.00;0.00;;;;;;;18.67;nan;101283.94;4953111;28;20181;-76
2023/07/08 00:14:19;;;;;;;0.00;0.00;;;;;;;18.53;nan;101269.63;4952766;28;20337;-76
2023/07/08 00:16:44;;;;;;;0.00;0.00;;;;;;;18.49;nan;101277.78;4953020;28;20182;-76
2023/07/08 00:19:10;;;;;;;0.00;0.00;;;;;;;18.41;nan;101278.69;4952498;28;20309;-76
2023/07/08 00:21:36;;;;;;;0.00;0.00;;;;;;;18.22;nan;101281.19;4952929;28;20676;-76
2023/07/08 00:24:01;;;;;;;0.00;0.00;;;;;;;18.16;nan;101286.16;4952720;28;20723;-76
2023/07/08 00:26:29;;;;;;;0.00;0.00;;;;;;;18.07;nan;101277.13;4952889;28;20191;-76
2023/07/08 00:28:55;;;;;;;0.00;0.00;;;;;;;18.04;nan;101280.56;4952269;28;20394;-76
2023/07/08 00:31:26;;;;;;;0.00;0.00;;;;;;;18.16;nan;101275.06;4952718;28;20218;-76
2023/07/08 00:33:57;;;;;;;0.00;0.00;;;;;;;18.15;nan;101267.94;4952827;28;20620;-76
2023/07/08 00:36:24;;;;;;;0.00;0.00;;;;;;;18.09;nan;101270.13;4952904;28;20265;-75
2023/07/08 00:38:49;;;;;;;0.00;0.00;;;;;;;17.76;nan;101250.75;4952350;28;20267;-76
2023/07/08 00:41:24;;;;;;;2.93;1.93;;;;;;;16.85;nan;101224.81;4948515;29;20666;-76
2023/07/08 00:43:55;;;;;;;0.00;0.00;;;;;;;17.03;nan;101249.56;4948250;29;20214;-76
2023/07/08 00:46:26;;;;;;;0.00;0.00;;;;;;;17.36;nan;101255.97;4950500;29;20237;-75
2023/07/08 00:48:57;;;;;;;0.00;0.00;;;;;;;17.49;nan;101257.63;4952492;28;20182;-76
2023/07/08 00:51:23;;;;;;;0.00;0.00;;;;;;;16.72;nan;101244.38;4951291;29;20193;-76
2023/07/08 00:53:48;;;;;;;0.00;0.00;;;;;;;16.95;nan;101271.38;4953032;28;20206;-76
2023/07/08 00:56:31;;;;;;;0.00;0.00;;;;;;;17.16;nan;101252.06;4952528;28;20668;-76
2023/07/08 00:59:04;;;;;;;0.00;0.00;;;;;;;17.22;nan;101245.19;4952027;28;20182;-75
2023/07/08 01:01:32;;;;;;;0.00;0.00;;;;;;;17.14;nan;101231.44;4967256;28;20186;-75
2023/07/08 01:04:03;;;;;;;0.20;0.20;;;;;;;17.17;nan;101241.81;4952559;28;20632;-76
2023/07/08 01:06:33;;;;;;;0.00;0.00;;;;;;;17.13;nan;101221.56;4951103;29;20186;-76
2023/07/08 01:09:05;;;;;;;0.00;0.00;;;;;;;17.14;nan;101226.72;4952135;28;20246;-76
2023/07/08 01:11:32;;;;;;;0.00;0.00;;;;;;;17.07;nan;101212.66;4951138;28;20193;-76
2023/07/08 01:14:00;;;;;;;0.00;0.00;;;;;;;17.08;nan;101219.00;4951348;29;20234;-76
2023/07/08 01:16:26;;;;;;;0.00;0.00;;;;;;;16.91;nan;101206.09;4952528;28;20186;-76
2023/07/08 01:18:54;;;;;;;0.00;0.00;;;;;;;16.87;nan;101214.25;4951916;28;20213;-76
2023/07/08 01:21:34;;;;;;;0.00;0.00;;;;;;;17.08;nan;101227.28;4967221;28;20574;-76
2023/07/08 01:24:02;;;;;;;0.00;0.00;;;;;;;17.15;nan;101233.06;4951291;28;20268;-76
2023/07/08 01:26:30;;;;;;;0.00;0.00;;;;;;;17.21;nan;101221.50;4950781;29;20198;-76
2023/07/08 01:28:56;;;;;;;0.10;0.10;;;;;;;17.07;nan;101204.38;4952182;28;20728;-76
2023/07/08 01:31:23;;;;;;;0.00;0.00;;;;;;;16.96;nan;101192.13;4955964;28;20548;-76
2023/07/08 01:33:49;;;;;;;0.00;0.00;;;;;;;16.86;nan;101204.34;4955991;28;20208;-75
2023/07/08 01:36:14;;;;;;;0.10;0.10;;;;;;;16.81;nan;101198.25;4955964;28;20257;-76
2023/07/08 01:38:41;;;;;;;0.00;0.00;;;;;;;16.75;nan;101211.41;4955838;28;20661;-76
2023/07/08 01:41:11;;;;;;;0.00;0.00;;;;;;;16.78;nan;101216.28;4951133;29;20187;-76
2023/07/08 01:43:36;;;;;;;0.00;0.00;;;;;;;16.85;nan;101207.47;4955302;29;20214;-76
2023/07/08 01:46:02;;;;;;;0.00;0.00;;;;;;;16.90;nan;101219.09;4955592;28;20190;-76
2023/07/08 01:48:38;;;;;;;0.00;0.00;;;;;;;16.92;nan;101210.47;4955939;28;20638;-76
2023/07/08 01:51:05;;;;;;;0.00;0.00;;;;;;;16.96;nan;101219.72;4955270;28;20241;-76
2023/07/08 01:53:36;;;;;;;0.00;0.00;;;;;;;17.01;nan;101210.44;4955442;28;20210;-75
2023/07/08 01:56:03;;;;;;;0.00;0.00;;;;;;;16.93;nan;101198.31;4954590;29;20264;-76
2023/07/08 01:58:28;;;;;;;0.00;0.00;;;;;;;16.83;nan;101199.50;4955305;28;20194;-76
2023/07/08 02:00:54;;;;;;;0.00;0.00;;;;;;;16.82;nan;101202.63;4954984;28;20186;-76
2023/07/08 02:03:20;;;;;;;0.00;0.00;;;;;;;16.58;nan;101170.91;4955284;28;20218;-75
2023/07/08 02:05:45;;;;;;;0.00;0.00;;;;;;;16.52;nan;101180.53;4955606;29;20649;-76
2023/07/08 02:08:10;;;;;;;0.00;0.00;;;;;;;16.54;nan;101185.72;4955450;28;20182;-76
2023/07/08 02:10:38;;;;;;;0.00;0.00;;;;;;;16.59;nan;101193.78;4954562;28;20190;-76
2023/07/08 02:13:03;;;;;;;0.00;0.00;;;;;;;16.49;nan;101180.38;4955154;28;20206;-76
2023/07/08 02:15:29;;;;;;;0.10;0.10;;;;;;;16.61;nan;101173.00;4955084;28;20245;-76
2023/07/08 02:17:54;;;;;;;0.00;0.00;;;;;;;16.54;nan;101175.47;4955364;28;20209;-76
2023/07/08 02:20:20;;;;;;;0.00;0.00;;;;;;;16.51;nan;101181.66;4954535;28;20233;-76
2023/07/08 02:22:45;;;;;;;0.00;0.00;;;;;;;16.47;nan;101182.66;4955071;28;20548;-76
2023/07/08 02:25:10;;;;;;;0.00;0.00;;;;;;;16.57;nan;101190.56;4955007;28;20201;-75
2023/07/08 02:27:37;;;;;;;0.00;0.00;;;;;;;16.67;nan;101184.69;4954919;28;20190;-76
2023/07/08 02:30:02;;;;;;;0.00;0.00;;;;;;;16.59;nan;101197.34;4954366;28;20208;-76
2023/07/08 02:32:28;;;;;;;0.00;0.00;;;;;;;16.66;nan;101200.41;4953681;29;20186;-76
2023/07/08 02:34:53;;;;;;;0.00;0.00;;;;;;;16.75;nan;101208.66;4953444;29;20216;-76
2023/07/08 02:37:18;;;;;;;0.00;0.00;;;;;;;16.56;nan;101191.69;4954759;28;20270;-76
2023/07/08 02:39:44;;;;;;;0.00;0.00;;;;;;;16.39;nan;101186.28;4953388;28;20873;-76
2023/07/08 02:42:09;;;;;;;0.00;0.00;;;;;;;16.52;nan;101197.06;4954428;28;20187;-75
2023/07/08 02:44:34;;;;;;;0.00;0.00;;;;;;;16.57;nan;101196.06;4954444;28;20210;-76
2023/07/08 02:47:00;;;;;;;0.00;0.00;;;;;;;16.06;nan;101160.16;4954680;28;20200;-76
2023/07/08 02:49:25;;;;;;;0.00;0.00;;;;;;;15.93;nan;101179.66;4951162;29;20282;-75
2023/07/08 02:51:50;;;;;;;0.00;0.00;;;;;;;16.12;nan;101184.78;4954520;28;20277;-76
2023/07/08 02:54:16;;;;;;;0.00;0.00;;;;;;;16.27;nan;101187.78;4953046;28;20241;-75
2023/07/08 02:56:41;;;;;;;0.00;0.00;;;;;;;16.27;nan;101193.31;4953382;29;20194;-76
2023/07/08 02:59:06;;;;;;;0.00;0.00;;;;;;;16.39;nan;101186.28;4952512;28;20186;-76
2023/07/08 03:01:33;;;;;;;0.20;0.20;;;;;;;15.82;nan;101143.38;4954262;28;20194;-75
2023/07/08 03:04:00;;;;;;;0.00;0.00;;;;;;;15.83;nan;101160.72;4949640;29;20215;-76
2023/07/08 03:06:25;;;;;;;0.63;0.63;;;;;;;15.62;nan;101166.94;4951306;28;20183;-76
2023/07/08 03:08:51;;;;;;;0.00;0.00;;;;;;;15.48;nan;101182.81;4953843;28;20680;-75
2023/07/08 03:11:16;;;;;;;0.00;0.00;;;;;;;15.47;nan;101168.22;4954214;28;20193;-75
2023/07/08 03:13:41;;;;;;;0.00;0.00;;;;;;;15.28;nan;101170.50;4953972;28;20250;-76
2023/07/08 03:16:12;;;;;;;0.00;0.00;;;;;;;15.07;nan;101166.81;4949661;29;20191;-76
2023/07/08 03:18:45;;;;;;;0.00;0.00;;;;;;;15.13;nan;101174.56;4953887;29;20663;-76
2023/07/08 03:21:12;;;;;;;0.00;0.00;;;;;;;15.31;nan;101204.84;4954093;28;20691;-75
2023/07/08 03:23:37;;;;;;;0.00;0.00;;;;;;;15.19;nan;101183.50;4953628;28;20218;-76
2023/07/08 03:26:02;;;;;;;0.07;0.07;;;;;;;15.00;nan;101178.28;4953828;28;20676;-76
2023/07/08 03:28:27;;;;;;;0.00;0.00;;;;;;;15.24;nan;101186.06;4953907;28;20193;-76
2023/07/08 03:30:53;;;;;;;0.00;0.00;;;;;;;15.43;nan;101197.53;4952226;28;20202;-75
2023/07/08 03:33:18;;;;;;;0.00;0.00;;;;;;;15.56;nan;101193.00;4953296;28;20209;-76
2023/07/08 03:35:44;;;;;;;0.00;0.00;;;;;;;15.37;nan;101171.31;4953513;28;20542;-76
2023/07/08 03:38:10;;;;;;;0.00;0.00;;;;;;;15.16;nan;101160.16;4953979;28;20178;-76
2023/07/08 03:40:35;;;;;;;0.00;0.00;;;;;;;15.11;nan;101171.34;4953268;28;20190;-76
2023/07/08 03:43:00;;;;;;;0.03;0.03;;;;;;;15.00;nan;101171.97;4953751;28;21069;-76
2023/07/08 03:45:26;;;;;;;0.00;0.00;;;;;;;14.92;nan;101181.06;4953885;28;20188;-76
2023/07/08 03:47:51;;;;;;;0.00;0.00;;;;;;;14.99;nan;101187.69;4952822;28;20194;-76
2023/07/08 03:50:22;;;;;;;0.00;0.00;;;;;;;15.16;nan;101184.91;4952706;28;20202;-76
2023/07/08 03:52:49;;;;;;;0.37;0.37;;;;;;;15.37;nan;101190.59;4953029;28;20178;-75
2023/07/08 03:55:14;;;;;;;0.00;0.00;;;;;;;15.48;nan;101194.66;4953179;28;20193;-75
2023/07/08 03:57:40;;;;;;;0.00;0.00;;;;;;;15.55;nan;101199.66;4953400;28;20179;-76
2023/07/08 04:00:14;;;;;;;0.00;0.00;;;;;;;15.40;nan;101187.19;4952833;28;20522;-76
2023/07/08 04:02:41;;;;;;;0.00;0.00;;;;;;;15.20;nan;101187.06;4953171;28;20202;-75
2023/07/08 04:05:13;;;;;;;0.00;0.00;;;;;;;15.14;nan;101189.94;4953202;29;20186;-75
2023/07/08 04:07:39;;;;;;;0.00;0.00;;;;;;;14.98;nan;101188.00;4953104;28;20685;-76
2023/07/08 04:10:04;;;;;;;0.00;0.00;;;;;;;14.95;nan;101192.22;4952755;28;20186;-76
2023/07/08 04:12:29;;;;;;;0.00;0.00;;;;;;;15.10;nan;101199.19;4953304;28;20233;-76
2023/07/08 04:14:55;;;;;;;0.00;0.00;;;;;;;15.38;nan;101207.94;4952982;28;20202;-76
2023/07/08 04:17:23;;;;;;;0.00;0.00;;;;;;;15.50;nan;101213.59;4952913;28;20279;-76
2023/07/08 04:19:48;;;;;;;0.00;0.00;;;;;;;15.61;nan;101217.63;4952443;28;20182;-76
2023/07/08 04:22:13;;;;;;;0.00;0.00;;;;;;;15.83;nan;101232.38;4952761;28;20193;-76
2023/07/08 04:24:39;;;;;;;0.00;0.00;;;;;;;15.94;nan;101241.91;4952896;28;20289;-76
2023/07/08 04:27:05;;;;;;;0.10;0.10;;;;;;;15.80;nan;101236.59;4952996;28;20206;-76
2023/07/08 04:29:30;;;;;;;0.00;0.00;;;;;;;15.82;nan;101231.56;4952362;28;20182;-76
2023/07/08 04:31:55;;;;;;;0.00;0.00;;;;;;;15.73;nan;101226.06;4952915;28;20186;-76
2023/07/08 04:34:21;;;;;;;0.00;0.00;;;;;;;15.74;nan;101221.34;4953042;28;20282;-77
2023/07/08 04:36:46;;;;;;;0.00;0.00;;;;;;;15.80;nan;101236.59;4952934;28;20183;-77
2023/07/08 04:39:13;;;;;;;0.00;0.00;;;;;;;15.91;nan;101228.75;4951637;28;20764;-80
2023/07/08 04:41:40;;;;;;;0.20;0.20;;;;;;;15.90;nan;101227.97;4953038;29;20185;-77
2023/07/08 04:44:07;;;;;;;0.00;0.00;;;;;;;15.96;nan;101226.66;4952369;28;20202;-76
2023/07/08 04:46:38;;;;;;;0.00;0.00;;;;;;;15.99;nan;101233.47;4951902;28;20190;-77
2023/07/08 04:49:06;;;;;;;0.00;0.00;;;;;;;15.97;nan;101214.50;4951813;28;20258;-76
2023/07/08 04:51:32;;;;;;;0.00;0.00;;;;;;;16.06;nan;101242.84;4952582;29;20218;-77
2023/07/08 04:53:57;;;;;;;0.00;0.00;;;;;;;16.18;nan;101253.19;4951310;28;20284;-77
2023/07/08 04:56:23;;;;;;;0.00;0.00;;;;;;;16.43;nan;101257.00;4948750;29;20194;-77
2023/07/08 04:58:48;;;;;;;0.00;0.00;;;;;;;16.44;nan;101255.84;4951735;28;20183;-77
2023/07/08 05:01:14;;;;;;;1.00;0.73;;;;;;;16.46;nan;101252.75;4952103;28;20182;-77
2023/07/08 05:03:39;;;;;;;0.00;0.00;;;;;;;16.66;nan;101268.59;4953535;28;20289;-77
2023/07/08 05:06:04;;;;;;;0.97;0.97;;;;;;;16.65;nan;101251.22;4956435;29;20689;-77
2023/07/08 05:08:30;;;;;;;0.00;0.00;;;;;;;16.70;nan;101271.50;4956470;28;20190;-77
2023/07/08 05:10:55;;;;;;;0.00;0.00;;;;;;;16.74;nan;101269.69;4955640;28;20178;-77
2023/07/08 05:13:21;;;;;;;0.33;0.33;;;;;;;16.70;nan;101269.56;4954792;29;20202;-77
2023/07/08 05:15:48;;;;;;;1.80;1.70;;;;;;;16.67;nan;101267.47;4954800;28;20225;-77
2023/07/08 05:18:13;;;;;;;0.00;0.00;;;;;;;16.75;nan;101268.56;4956236;28;20193;-77
2023/07/08 05:20:38;;;;;;;0.00;0.00;;;;;;;16.90;nan;101288.09;4955704;28;20186;-77
2023/07/08 05:23:04;;;;;;;0.00;0.00;;;;;;;16.86;nan;101259.56;4956063;28;20211;-77
2023/07/08 05:25:32;;;;;;;0.00;0.00;;;;;;;16.86;nan;101270.59;4956052;28;20178;-77
2023/07/08 05:27:57;;;;;;;0.00;0.00;;;;;;;16.88;nan;101267.50;4956174;28;20198;-77
2023/07/08 05:30:22;;;;;;;0.00;0.00;;;;;;;16.89;nan;101264.41;4955176;28;20826;-77
2023/07/08 05:32:48;;;;;;;2.37;1.30;;;;;;;16.85;nan;101262.66;4955859;29;20182;-77
2023/07/08 05:35:13;;;;;;;0.10;0.10;;;;;;;16.92;nan;101268.44;4955793;28;20182;-77
2023/07/08 05:37:39;;;;;;;0.00;0.00;;;;;;;16.93;nan;101254.34;4956139;28;20233;-77
2023/07/08 05:40:06;;;;;;;0.27;0.27;;;;;;;16.99;nan;101265.97;4948902;29;20266;-77
2023/07/08 05:42:32;;;;;;;0.30;0.30;;;;;;;17.07;nan;101265.13;4954836;29;20217;-77
2023/07/08 05:44:57;;;;;;;0.57;0.57;;;;;;;17.11;nan;101266.06;4955359;28;20635;-77
2023/07/08 05:47:23;;;;;;;0.10;0.10;;;;;;;17.19;nan;101267.13;4954580;28;20179;-77
2023/07/08 05:49:48;;;;;;;1.90;0.87;;;;;;;17.25;nan;101269.38;4952893;29;20233;-77
2023/07/08 05:52:13;;;;;;;0.00;0.00;;;;;;;17.33;nan;101275.16;4955797;28;20244;-77
2023/07/08 05:54:40;;;;;;;0.50;0.50;;;;;;;17.27;nan;101273.75;4970373;28;20261;-76
2023/07/08 05:57:07;;;;;;;0.00;0.00;;;;;;;17.41;nan;101280.63;4947932;28;20179;-76
2023/07/08 05:59:34;;;;;;;0.00;0.00;;;;;;;17.58;nan;101290.72;4946030;28;20193;-77
2023/07/08 06:02:00;;;;;;;0.00;0.00;;;;;;;17.73;nan;101295.66;4948031;28;20261;-77
2023/07/08 06:04:25;;;;;;;0.00;0.00;;;;;;;17.76;nan;101283.94;4952666;29;20234;-76
2023/07/08 06:06:50;;;;;;;0.00;0.00;;;;;;;17.85;nan;101286.63;4954468;28;20186;-77
2023/07/08 06:09:15;;;;;;;0.00;0.00;;;;;;;17.94;nan;101292.06;4953579;29;20190;-77
2023/07/08 06:11:41;;;;;;;0.00;0.00;;;;;;;17.87;nan;101286.28;4954716;28;20190;-77
2023/07/08 06:14:06;;;;;;;0.20;0.20;;;;;;;18.02;nan;101285.63;4953982;28;20282;-77
2023/07/08 06:16:31;;;;;;;0.00;0.00;;;;;;;18.12;nan;101288.78;4955066;28;20189;-77
2023/07/08 06:18:59;;;;;;;4.43;0.97;;;;;;;18.26;nan;101294.00;4953257;28;20214;-77
2023/07/08 06:21:25;;;;;;;0.00;0.00;;;;;;;18.33;nan;101291.47;4949850;28;20189;-77
2023/07/08 06:23:50;;;;;;;1.40;1.40;;;;;;;18.38;nan;101288.50;4948964;29;20222;-77
2023/07/08 06:26:15;;;;;;;0.87;0.87;;;;;;;18.59;nan;101296.72;4944422;28;20194;-76
2023/07/08 06:28:41;;;;;;;0.63;0.27;;;;;;;18.57;nan;101292.69;4950081;29;20922;-77
2023/07/08 06:31:06;;;;;;;0.00;0.00;;;;;;;18.52;nan;101281.84;4953552;28;20204;-76
2023/07/08 06:33:31;;;;;;;0.00;0.00;;;;;;;18.65;nan;101286.22;4950822;28;20206;-76
2023/07/08 06:35:56;;;;;;;0.67;0.67;;;;;;;18.77;nan;101285.44;4963317;28;20210;-77
2023/07/08 06:38:22;;;;;;;0.00;0.00;;;;;;;18.84;nan;101303.09;4942018;28;20178;-77
2023/07/08 06:40:47;;;;;;;0.00;0.00;;;;;;;18.85;nan;101293.63;4953489;28;20638;-77
2023/07/08 06:43:12;;;;;;;0.00;0.00;;;;;;;18.93;nan;101298.22;4950599;29;20333;-76
2023/07/08 06:45:38;;;;;;;0.00;0.00;;;;;;;18.99;nan;101273.91;4965359;28;20189;-77
2023/07/08 06:48:03;;;;;;;0.50;0.50;;;;;;;19.09;nan;101286.44;4950844;28;20229;-77
2023/07/08 06:50:30;;;;;;;0.00;0.00;;;;;;;19.24;nan;101294.03;4948629;28;20210;-79
2023/07/08 06:52:55;;;;;;;0.00;0.00;;;;;;;19.40;nan;101294.94;4954818;28;20757;-77
2023/07/08 06:55:21;;;;;;;0.10;0.10;;;;;;;19.60;nan;101302.31;4954848;28;20285;-77
2023/07/08 06:57:46;;;;;;;0.00;0.00;;;;;;;19.79;nan;101301.66;4951854;28;20194;-77
2023/07/08 07:00:12;;;;;;;0.33;0.33;;;;;;;19.78;nan;101286.16;4950305;29;20182;-76
2023/07/08 07:02:38;;;;;;;1.00;1.00;;;;;;;19.83;nan;101285.94;4953582;28;20244;-76
2023/07/08 07:05:04;;;;;;;0.10;0.10;;;;;;;19.95;nan;101284.25;4954111;28;20194;-75
2023/07/08 07:07:30;;;;;;;0.00;0.00;;;;;;;20.07;nan;101289.72;4954149;28;20186;-77
2023/07/08 07:09:55;;;;;;;0.00;0.00;;;;;;;20.27;nan;101297.03;4953720;28;20189;-76
2023/07/08 07:12:24;;;;;;;0.00;0.00;;;;;;;20.45;nan;101295.56;4954459;28;20256;-79
2023/07/08 07:14:52;;;;;;;0.50;0.50;;;;;;;20.60;nan;101293.94;4959901;28;20288;-79
2023/07/08 07:17:21;;;;;;;0.00;0.00;;;;;;;20.68;nan;101290.16;4956420;29;20187;-77
2023/07/08 07:19:46;;;;;;;0.00;0.00;;;;;;;20.73;nan;101289.09;4957587;28;20187;-80
2023/07/08 07:22:11;;;;;;;0.00;0.00;;;;;;;20.83;nan;101277.44;4972563;28;20198;-83
2023/07/08 07:24:37;;;;;;;2.27;0.40;;;;;;;20.56;nan;101256.97;4953209;28;20230;-81
2023/07/08 07:27:02;;;;;;;0.00;0.00;;;;;;;20.92;nan;101294.72;4956075;28;20187;-77
2023/07/08 07:29:28;;;;;;;0.00;0.00;;;;;;;20.95;nan;101274.53;4955912;28;20175;-77
2023/07/08 07:31:54;;;;;;;0.00;0.00;;;;;;;21.11;nan;101288.41;4954215;28;20179;-77
2023/07/08 07:34:19;;;;;;;0.87;0.87;;;;;;;21.05;nan;101259.28;4952197;28;20206;-77
2023/07/08 07:36:45;;;;;;;1.13;0.83;;;;;;;21.23;nan;101281.91;4952413;28;20187;-77
2023/07/08 07:39:10;;;;;;;0.00;0.00;;;;;;;21.32;nan;101271.44;4953213;29;20245;-77
2023/07/08 07:41:35;;;;;;;0.30;0.30;;;;;;;21.49;nan;101276.56;4953434;28;20265;-77
2023/07/08 07:44:01;;;;;;;0.77;0.43;;;;;;;21.53;nan;101265.50;4954412;28;20589;-77
2023/07/08 07:46:26;;;;;;;0.00;0.00;;;;;;;21.63;nan;101268.50;4968590;28;20190;-77
2023/07/08 07:48:51;;;;;;;0.00;0.00;;;;;;;21.71;nan;101257.56;4949020;29;20203;-76
2023/07/08 07:51:17;;;;;;;1.63;0.40;;;;;;;21.76;nan;101246.91;4951102;29;20189;-78
2023/07/08 07:53:42;;;;;;;0.00;0.00;;;;;;;21.87;nan;101256.28;4953800;28;20708;-77
2023/07/08 07:56:07;;;;;;;0.00;0.00;;;;;;;22.00;nan;101662.44;4953594;28;20192;-77
2023/07/08 07:58:33;;;;;;;1.47;1.40;;;;;;;22.17;nan;101423.50;4953516;28;20188;-77
2023/07/08 08:00:59;;;;;;;0.10;0.10;;;;;;;22.22;nan;101348.03;4953192;28;20176;-77
2023/07/08 08:03:24;;;;;;;3.30;3.10;;;;;;;22.07;nan;101301.59;4953447;28;20211;-77
2023/07/08 08:05:50;;;;;;;0.27;0.27;;;;;;;22.19;nan;101281.94;4957119;28;20194;-78
2023/07/08 08:08:16;;;;;;;0.27;0.27;;;;;;;22.46;nan;101282.84;4956850;28;20236;-82
2023/07/08 08:10:44;;;;;;;0.00;0.00;;;;;;;22.67;nan;101299.09;4956659;28;20441;-82
2023/07/08 08:13:11;;;;;;;0.10;0.10;;;;;;;22.82;nan;101256.38;4955197;29;20202;-82
2023/07/08 08:15:37;;;;;;;0.47;0.47;;;;;;;22.87;nan;101266.41;4954933;28;20189;-78
2023/07/08 08:18:02;;;;;;;0.33;0.33;;;;;;;22.80;nan;101244.75;4956047;28;20181;-78
2023/07/08 08:20:28;;;;;;;0.30;0.30;;;;;;;22.67;nan;101226.66;4954163;28;20209;-77
2023/07/08 08:22:54;;;;;;;1.23;0.73;;;;;;;22.74;nan;101237.91;4953203;29;20202;-78
2023/07/08 08:25:21;;;;;;;5.80;0.63;;;;;;;22.95;nan;101253.38;4956062;28;20191;-78
2023/07/08 08:27:47;;;;;;;0.60;0.60;;;;;;;22.95;nan;101248.59;4956478;29;20182;-77
2023/07/08 08:30:12;;;;;;;0.10;0.10;;;;;;;23.01;nan;101265.81;4956282;28;20226;-78
2023/07/08 08:32:37;;;;;;;0.33;0.33;;;;;;;23.26;nan;101275.31;4957700;28;20205;-78
2023/07/08 08:35:03;;;;;;;0.00;0.00;;;;;;;23.40;nan;101283.88;4956807;28;20182;-77
2023/07/08 08:37:29;;;;;;;0.17;0.17;;;;;;;23.34;nan;101410.09;4956566;28;20249;-78
2023/07/08 08:39:54;;;;;;;0.10;0.10;;;;;;;23.38;nan;101327.28;4956626;28;20247;-78
2023/07/08 08:42:30;;;;;;;0.10;0.10;;;;;;;23.56;nan;101282.88;4952968;29;20556;-78
2023/07/08 08:44:58;;;;;;;0.00;0.00;;;;;;;23.78;nan;101275.63;4955745;28;20206;-82
2023/07/08 08:47:40;;;;;;;0.53;0.53;;;;;;;23.78;nan;101233.75;4953990;29;20759;-84
2023/07/08 08:50:18;;;;;;;0.00;0.00;;;;;;;23.91;nan;101243.47;4954463;28;20619;-82
2023/07/08 08:52:44;;;;;;;2.10;1.37;;;;;;;24.02;nan;101249.97;4953906;28;20175;-82
2023/07/08 08:55:14;;;;;;;0.20;0.20;;;;;;;24.04;nan;101234.44;4953725;28;20182;-81
2023/07/08 08:58:12;;;;;;;0.13;0.13;;;;;;;24.36;nan;101252.69;4953179;29;20183;-84
2023/07/08 09:00:56;;;;;;;0.50;0.50;;;;;;;24.51;nan;101248.84;4951387;29;20201;-81
2023/07/08 09:03:39;;;;;;;0.30;0.30;;;;;;;24.54;nan;101232.09;4954512;28;20748;-83
2023/07/08 09:06:14;;;;;;;0.00;0.00;;;;;;;24.66;nan;101250.53;4954077;28;20262;-85
2023/07/08 09:08:40;;;;;;;21.13;1.33;;;;;;;24.31;nan;101232.31;4955411;28;20186;-78
2023/07/08 09:11:47;;;;;;;0.43;0.43;;;;;;;24.71;nan;101252.97;4955251;28;20708;-78
2023/07/08 09:14:18;;;;;;;0.70;0.70;;;;;;;24.63;nan;101237.34;4956562;28;20700;-77
2023/07/08 09:16:59;;;;;;;0.00;0.00;;;;;;;24.57;nan;101236.09;4956060;29;20182;-78
2023/07/08 09:19:29;;;;;;;0.17;0.17;;;;;;;24.71;nan;101233.41;4953487;29;20191;-78
2023/07/08 09:22:04;;;;;;;0.53;0.27;;;;;;;24.65;nan;101221.00;4955178;29;20182;-77
2023/07/08 09:24:38;;;;;;;0.20;0.20;;;;;;;24.78;nan;101219.50;4953417;28;20214;-81
2023/07/08 09:27:03;;;;;;;0.20;0.20;;;;;;;25.05;nan;101228.47;4949464;29;20186;-78
2023/07/08 09:29:29;;;;;;;0.97;0.97;;;;;;;25.14;nan;101226.09;4947433;28;20186;-78
2023/07/08 09:31:55;;;;;;;0.33;0.33;;;;;;;25.26;nan;101224.97;4955314;28;20182;-78
2023/07/08 09:34:35;;;;;;;0.83;0.83;;;;;;;25.20;nan;101201.38;4955332;28;20713;-78
2023/07/08 09:37:00;;;;;;;1.00;0.97;;;;;;;25.33;nan;101191.44;4955162;28;20178;-78
2023/07/08 09:39:26;;;;;;;0.47;0.40;;;;;;;25.17;nan;101179.75;4955185;28;20185;-78
2023/07/08 09:41:52;;;;;;;0.20;0.20;;;;;;;25.23;nan;101185.78;4955134;28;20665;-78
2023/07/08 09:44:29;;;;;;;0.20;0.20;;;;;;;25.34;nan;101189.44;4953316;28;20213;-78
2023/07/08 09:46:57;;;;;;;0.23;0.23;;;;;;;25.48;nan;101204.28;4954115;29;20562;-78
2023/07/08 09:49:31;;;;;;;0.30;0.30;;;;;;;25.60;nan;101448.59;4954977;28;20189;-78
2023/07/08 09:51:57;;;;;;;0.57;0.57;;;;;;;25.74;nan;101342.34;4962246;28;20182;-77
2023/07/08 09:54:24;;;;;;;0.30;0.30;;;;;;;26.04;nan;101261.66;4960479;28;20225;-78
2023/07/08 09:57:09;;;;;;;3.50;2.33;;;;;;;25.93;nan;101218.03;4958174;28;20182;-77
2023/07/08 09:59:42;;;;;;;0.30;0.30;;;;;;;26.19;nan;101247.69;4971500;28;20186;-77
2023/07/08 10:02:46;;;;;;;0.67;0.67;;;;;;;26.46;nan;101232.06;4956077;29;20697;-78
2023/07/08 10:05:31;;;;;;;0.10;0.10;;;;;;;26.60;nan;101229.25;4935730;29;20253;-77
2023/07/08 10:07:57;;;;;;;1.40;1.00;;;;;;;26.46;nan;101200.44;4956344;28;20206;-77
2023/07/08 10:10:35;;;;;;;0.30;0.30;;;;;;;26.85;nan;101228.44;4955245;29;20186;-77
2023/07/08 10:13:04;;;;;;;0.40;0.40;;;;;;;26.98;nan;101226.81;4956341;28;20196;-77
2023/07/08 10:15:39;;;;;;;0.83;0.83;;;;;;;27.01;nan;101203.56;4956781;28;20213;-77
2023/07/08 10:18:07;;;;;;;0.43;0.43;;;;;;;26.94;nan;101207.19;4957051;28;20189;-77
2023/07/08 10:21:08;;;;;;;1.83;1.33;;;;;;;27.03;nan;101198.34;4956067;28;20205;-77
2023/07/08 10:23:58;;;;;;;0.57;0.57;;;;;;;27.13;nan;101203.13;4955853;28;20701;-78
2023/07/08 10:26:29;;;;;;;1.17;1.17;;;;;;;27.31;nan;101191.03;4956464;28;20187;-77
2023/07/08 10:29:24;;;;;;;0.60;0.60;;;;;;;27.37;nan;101193.03;4956148;28;20186;-77
2023/07/08 10:32:01;;;;;;;1.53;1.40;;;;;;;27.37;nan;101173.38;4956387;28;20668;-77
2023/07/08 10:34:48;;;;;;;1.00;0.97;;;;;;;27.56;nan;101428.38;4956379;28;20573;-77
2023/07/08 10:37:31;;;;;;;0.10;0.10;;;;;;;27.84;nan;101261.00;4956224;28;20242;-77
2023/07/08 10:40:05;;;;;;;1.20;1.10;;;;;;;27.77;nan;101207.66;4955170;29;20247;-77
2023/07/08 10:42:52;;;;;;;0.10;0.10;;;;;;;28.00;nan;101223.97;4956028;28;20297;-77
2023/07/08 10:45:35;;;;;;;0.30;0.30;;;;;;;28.17;nan;101194.94;4952589;29;20655;-78
2023/07/08 10:48:17;;;;;;;0.10;0.10;;;;;;;27.95;nan;101169.03;4956264;28;20191;-77
2023/07/08 10:51:03;;;;;;;0.50;0.50;;;;;;;28.21;nan;101190.09;4951966;29;20204;-78
2023/07/08 10:53:57;;;;;;;0.90;0.40;;;;;;;28.45;nan;101182.66;4956940;29;20639;-78
2023/07/08 10:56:36;;;;;;;0.00;0.00;;;;;;;28.31;nan;101182.81;4956995;29;20189;-78
2023/07/08 10:59:07;;;;;;;0.10;0.10;;;;;;;28.62;nan;101192.16;4957822;28;20674;-78
2023/07/08 11:02:09;;;;;;;0.00;0.00;;;;;;;28.56;nan;101185.38;4955545;28;20718;-77
2023/07/08 11:05:10;;;;;;;0.20;0.20;;;;;;;28.61;nan;101176.50;4957556;28;20211;-77
2023/07/08 11:07:44;;;;;;;0.10;0.10;;;;;;;28.58;nan;101161.25;4956981;29;20227;-77
2023/07/08 11:10:25;;;;;;;0.90;0.90;;;;;;;28.78;nan;101152.19;4955728;29;20195;-78
2023/07/08 11:13:01;;;;;;;1.70;1.43;;;;;;;28.61;nan;101142.75;4956150;28;20176;-77
2023/07/08 11:15:45;;;;;;;0.00;0.00;;;;;;;28.67;nan;101153.13;4956940;28;20651;-77
2023/07/08 11:18:24;;;;;;;0.10;0.10;;;;;;;28.80;nan;101153.41;4956402;28;20190;-78
2023/07/08 11:21:06;;;;;;;0.67;0.67;;;;;;;28.72;nan;101284.88;4949314;29;20185;-77
2023/07/08 11:23:43;;;;;;;0.50;0.50;;;;;;;28.93;nan;101190.22;4954887;29;20222;-77
2023/07/08 11:26:24;;;;;;;0.30;0.30;;;;;;;29.07;nan;101163.94;4951937;29;20243;-77
2023/07/08 11:28:53;;;;;;;0.73;0.73;;;;;;;29.17;nan;101146.13;4949426;29;20187;-78
2023/07/08 11:31:19;;;;;;;1.40;1.23;;;;;;;28.79;nan;101123.66;4956148;28;20702;-77
2023/07/08 11:33:46;;;;;;;1.37;1.27;;;;;;;28.83;nan;101124.41;4956553;28;20572;-77
2023/07/08 11:36:14;;;;;;;0.70;0.70;;;;;;;29.05;nan;101139.03;4954912;29;20189;-77
2023/07/08 11:38:52;;;;;;;0.47;0.47;;;;;;;29.26;nan;101135.16;4951907;29;20185;-77
2023/07/08 11:41:20;;;;;;;0.20;0.20;;;;;;;29.56;nan;101145.63;4953424;29;20649;-77
2023/07/08 11:43:50;;;;;;;0.00;0.00;;;;;;;29.78;nan;101129.16;4955719;28;20223;-77
2023/07/08 11:46:28;;;;;;;0.07;0.07;;;;;;;29.67;nan;101125.75;4957362;28;20214;-78
2023/07/08 11:48:57;;;;;;;1.37;1.27;;;;;;;29.52;nan;101111.88;4956070;29;20185;-78
2023/07/08 11:51:33;;;;;;;2.73;1.97;;;;;;;29.63;nan;101111.69;4957342;28;20189;-77